Time;durP1;ratioP1;P1;durP2;ratioP2;P2;SDS_P1;SDS_P2;PMS_P1;PMS_P2;Temp;Humidity;BMP_temperature;BMP_pressure;BME280_temperature;BME280_humidity;BME280_pressure;Samples;Min_cycle;Max_cycle;Signal;HPM_P1;HPM_P2
2022/06/17 00:01:32;;;;;;;;;;;;;;;;;;5034430;28;20467;-74
2022/06/17 00:03:57;;;;;;;;;;;;;;;;;;5034049;28;19909;-73
2022/06/17 00:06:23;;;;;;;;;;;;;;;;;;5033720;28;19917;-73
2022/06/17 00:08:49;;;;;;;;;;;;;;;;;;5034035;28;19948;-72
2022/06/17 00:11:15;;;;;;;;;;;;;;;;;;5034038;28;20396;-73
2022/06/17 00:13:41;;;;;;;;;;;;;;;;;;5033768;28;19909;-73
2022/06/17 00:16:07;;;;;;;;;;;;;;;;;;5033299;28;20423;-73
2022/06/17 00:18:33;;;;;;;;;;;;;;;;;;5033948;28;19909;-73
2022/06/17 00:20:59;;;;;;;;;;;;;;;;;;5033645;28;20417;-74
2022/06/17 00:23:25;;;;;;;;;;;;;;;;;;5033600;28;19909;-74
2022/06/17 00:25:50;;;;;;;;;;;;;;;;;;5033541;28;20328;-75
2022/06/17 00:28:16;;;;;;;;;;;;;;;;;;5033809;28;19952;-73
2022/06/17 00:30:42;;;;;;;;;;;;;;;;;;5033801;28;19963;-72
2022/06/17 00:33:08;;;;;;;;;;;;;;;;;;5033517;28;19909;-74
2022/06/17 00:35:34;;;;;;;;;;;;;;;;;;5033481;28;19913;-72
2022/06/17 00:38:00;;;;;;;;;;;;;;;;;;5033420;28;20393;-73
2022/06/17 00:40:26;;;;;;;;;;;;;;;;;;5033248;28;19915;-74
2022/06/17 00:42:52;;;;;;;;;;;;;;;;;;5034005;28;19920;-73
2022/06/17 00:45:18;;;;;;;;;;;;;;;;;;5033295;28;20003;-74
2022/06/17 00:47:44;;;;;;;;;;;;;;;;;;5033972;28;19913;-73
2022/06/17 00:50:13;;;;;;;;;;;;;;;;;;5032093;28;19976;-75
2022/06/17 00:52:39;;;;;;;;;;;;;;;;;;5033574;28;19913;-73
2022/06/17 00:55:05;;;;;;;;;;;;;;;;;;5033327;28;19975;-73
2022/06/17 00:57:31;;;;;;;;;;;;;;;;;;5033850;28;20264;-75
2022/06/17 00:59:56;;;;;;;;;;;;;;;;;;5033227;28;20266;-72
2022/06/17 01:02:22;;;;;;;;;;;;;;;;;;5033754;28;19947;-73
2022/06/17 01:04:49;;;;;;;;;;;;;;;;;;5033198;28;19948;-74
2022/06/17 01:07:15;;;;;;;;;;;;;;;;;;5033787;28;19909;-73
2022/06/17 01:10:01;;;;;;;;;;;;;;;;;;5033237;28;19910;-75
2022/06/17 01:12:27;;;;;;;;;;;;;;;;;;5033738;28;19917;-73
2022/06/17 01:14:53;;;;;;;;;;;;;;;;;;5033441;28;19909;-73
2022/06/17 01:17:18;;;;;;;;;;;;;;;;;;5033138;28;20268;-74
2022/06/17 01:19:44;;;;;;;;;;;;;;;;;;5033138;28;19916;-76
2022/06/17 01:22:10;;;;;;;;;;;;;;;;;;5033309;28;19909;-74
2022/06/17 01:24:36;;;;;;;;;;;;;;;;;;5032953;28;19909;-72
2022/06/17 01:27:02;;;;;;;;;;;;;;;;;;5034892;28;19909;-75
2022/06/17 01:29:29;;;;;;;;;;;;;;;;;;5036555;28;19909;-73
2022/06/17 01:31:55;;;;;;;;;;;;;;;;;;5036802;28;20380;-73
2022/06/17 01:34:21;;;;;;;;;;;;;;;;;;5036497;28;19936;-73
2022/06/17 01:36:47;;;;;;;;;;;;;;;;;;5036975;28;19980;-74
2022/06/17 01:39:13;;;;;;;;;;;;;;;;;;5036331;28;19909;-72
2022/06/17 01:41:39;;;;;;;;;;;;;;;;;;5036390;28;20328;-75
2022/06/17 01:44:05;;;;;;;;;;;;;;;;;;5036281;28;19909;-75
2022/06/17 01:46:31;;;;;;;;;;;;;;;;;;5036470;28;19959;-74
2022/06/17 01:48:57;;;;;;;;;;;;;;;;;;5036241;28;19909;-76
2022/06/17 01:51:23;;;;;;;;;;;;;;;;;;5036519;28;19909;-73
2022/06/17 01:53:49;;;;;;;;;;;;;;;;;;5036101;28;20324;-73
2022/06/17 01:56:15;;;;;;;;;;;;;;;;;;5036076;28;19996;-75
2022/06/17 01:58:40;;;;;;;;;;;;;;;;;;5034784;28;20035;-74
2022/06/17 02:01:06;;;;;;;;;;;;;;;;;;5035956;28;19948;-74
2022/06/17 02:03:32;;;;;;;;;;;;;;;;;;5035956;28;19916;-75
2022/06/17 02:05:58;;;;;;;;;;;;;;;;;;5035799;28;19920;-74
2022/06/17 02:08:24;;;;;;;;;;;;;;;;;;5036385;28;20361;-73
2022/06/17 02:10:51;;;;;;;;;;;;;;;;;;5036071;28;19913;-73
2022/06/17 02:13:17;;;;;;;;;;;;;;;;;;5035760;28;19909;-73
2022/06/17 02:15:43;;;;;;;;;;;;;;;;;;5035712;28;19909;-73
2022/06/17 02:18:09;;;;;;;;;;;;;;;;;;5035929;28;19909;-73
2022/06/17 02:20:35;;;;;;;;;;;;;;;;;;5035874;28;20274;-73
2022/06/17 02:23:01;;;;;;;;;;;;;;;;;;5036114;28;19909;-74
2022/06/17 02:25:27;;;;;;;;;;;;;;;;;;5035436;28;19913;-74
2022/06/17 02:27:52;;;;;;;;;;;;;;;;;;5035489;28;19917;-73
2022/06/17 02:30:18;;;;;;;;;;;;;;;;;;5035433;28;19909;-73
2022/06/17 02:32:44;;;;;;;;;;;;;;;;;;5035931;28;20261;-73
2022/06/17 02:35:10;;;;;;;;;;;;;;;;;;5035618;28;19909;-73
2022/06/17 02:37:36;;;;;;;;;;;;;;;;;;5034732;28;20308;-72
2022/06/17 02:40:02;;;;;;;;;;;;;;;;;;5034999;28;19992;-74
2022/06/17 02:42:28;;;;;;;;;;;;;;;;;;5034755;28;20316;-74
2022/06/17 02:44:54;;;;;;;;;;;;;;;;;;5035086;28;19963;-74
2022/06/17 02:47:19;;;;;;;;;;;;;;;;;;5035396;28;19909;-73
2022/06/17 02:49:45;;;;;;;;;;;;;;;;;;5035382;28;19909;-74
2022/06/17 02:52:11;;;;;;;;;;;;;;;;;;5035581;28;19909;-73
2022/06/17 02:54:37;;;;;;;;;;;;;;;;;;5034940;28;19909;-74
2022/06/17 02:57:03;;;;;;;;;;;;;;;;;;5034907;28;20427;-75
2022/06/17 02:59:29;;;;;;;;;;;;;;;;;;5033636;28;19917;-73
2022/06/17 03:01:55;;;;;;;;;;;;;;;;;;5035409;28;19917;-72
2022/06/17 03:04:21;;;;;;;;;;;;;;;;;;5035104;28;19909;-73
2022/06/17 03:06:47;;;;;;;;;;;;;;;;;;5034699;28;19963;-73
2022/06/17 03:09:13;;;;;;;;;;;;;;;;;;5034950;28;19952;-76
2022/06/17 03:11:39;;;;;;;;;;;;;;;;;;5034650;28;19959;-74
2022/06/17 03:14:05;;;;;;;;;;;;;;;;;;5034583;28;19909;-74
2022/06/17 03:16:31;;;;;;;;;;;;;;;;;;5034849;28;20468;-75
2022/06/17 03:18:57;;;;;;;;;;;;;;;;;;5034812;28;19932;-74
2022/06/17 03:21:23;;;;;;;;;;;;;;;;;;5034471;28;20395;-76
2022/06/17 03:23:49;;;;;;;;;;;;;;;;;;5034426;28;19917;-73
2022/06/17 03:26:15;;;;;;;;;;;;;;;;;;5033078;28;19920;-73
2022/06/17 03:28:40;;;;;;;;;;;;;;;;;;5034628;28;19932;-73
2022/06/17 03:31:06;;;;;;;;;;;;;;;;;;5034636;28;19909;-74
2022/06/17 03:33:34;;;;;;;;;;;;;;;;;;5034544;28;20362;-72
2022/06/17 03:36:00;;;;;;;;;;;;;;;;;;5034212;28;20282;-73
2022/06/17 03:38:26;;;;;;;;;;;;;;;;;;5034140;28;19916;-74
2022/06/17 03:40:52;;;;;;;;;;;;;;;;;;5032658;28;19967;-74
2022/06/17 03:43:18;;;;;;;;;;;;;;;;;;5034107;28;20012;-74
2022/06/17 03:45:44;;;;;;;;;;;;;;;;;;5034524;28;19917;-74
2022/06/17 03:48:10;;;;;;;;;;;;;;;;;;5034002;28;20262;-76
2022/06/17 03:50:35;;;;;;;;;;;;;;;;;;5034081;28;19909;-73
2022/06/17 03:53:01;;;;;;;;;;;;;;;;;;5034241;28;19910;-75
2022/06/17 03:55:27;;;;;;;;;;;;;;;;;;5033946;28;19917;-74
2022/06/17 03:57:53;;;;;;;;;;;;;;;;;;5034154;28;19910;-74
2022/06/17 04:00:19;;;;;;;;;;;;;;;;;;5033916;28;19995;-72
2022/06/17 04:02:45;;;;;;;;;;;;;;;;;;5034089;28;19959;-73
2022/06/17 04:05:12;;;;;;;;;;;;;;;;;;5033697;28;19935;-76
2022/06/17 04:07:38;;;;;;;;;;;;;;;;;;5033753;28;19932;-73
2022/06/17 04:10:04;;;;;;;;;;;;;;;;;;5034254;28;20370;-74
2022/06/17 04:12:30;;;;;;;;;;;;;;;;;;5033985;28;19913;-75
2022/06/17 04:14:56;;;;;;;;;;;;;;;;;;5033709;28;19913;-73
2022/06/17 04:17:21;;;;;;;;;;;;;;;;;;5033697;28;19979;-74
2022/06/17 04:19:47;;;;;;;;;;;;;;;;;;5034180;28;19910;-73
2022/06/17 04:22:13;;;;;;;;;;;;;;;;;;5033644;28;19944;-74
2022/06/17 04:24:39;;;;;;;;;;;;;;;;;;5033605;28;19916;-73
2022/06/17 04:27:05;;;;;;;;;;;;;;;;;;5033756;28;19927;-72
2022/06/17 04:29:31;;;;;;;;;;;;;;;;;;5033529;28;20439;-73
2022/06/17 04:31:57;;;;;;;;;;;;;;;;;;5033538;28;19910;-73
2022/06/17 04:34:24;;;;;;;;;;;;;;;;;;5033488;28;19909;-74
2022/06/17 04:36:50;;;;;;;;;;;;;;;;;;5034090;28;19909;-74
2022/06/17 04:39:15;;;;;;;;;;;;;;;;;;5033414;28;20428;-74
2022/06/17 04:41:41;;;;;;;;;;;;;;;;;;5033499;28;20059;-74
2022/06/17 04:44:07;;;;;;;;;;;;;;;;;;5033443;28;19913;-73
2022/06/17 04:46:33;;;;;;;;;;;;;;;;;;5033903;28;19913;-73
2022/06/17 04:48:59;;;;;;;;;;;;;;;;;;5033346;28;19909;-73
2022/06/17 04:51:25;;;;;;;;;;;;;;;;;;5033654;28;19909;-74
2022/06/17 04:53:51;;;;;;;;;;;;;;;;;;5033611;28;19909;-74
2022/06/17 04:56:17;;;;;;;;;;;;;;;;;;5033304;28;20364;-74
2022/06/17 04:58:43;;;;;;;;;;;;;;;;;;5033289;28;19909;-73
2022/06/17 05:01:09;;;;;;;;;;;;;;;;;;5034115;28;19910;-73
2022/06/17 05:03:34;;;;;;;;;;;;;;;;;;5037070;28;19916;-74
2022/06/17 05:06:01;;;;;;;;;;;;;;;;;;5036938;28;20448;-73
2022/06/17 05:08:26;;;;;;;;;;;;;;;;;;5037037;28;19958;-73
2022/06/17 05:10:52;;;;;;;;;;;;;;;;;;5037232;28;19909;-74
2022/06/17 05:13:18;;;;;;;;;;;;;;;;;;5036915;28;19916;-74
2022/06/17 05:15:44;;;;;;;;;;;;;;;;;;5037436;28;19917;-73
2022/06/17 05:18:10;;;;;;;;;;;;;;;;;;5036812;28;20293;-74
2022/06/17 05:20:36;;;;;;;;;;;;;;;;;;5036738;28;20288;-73
2022/06/17 05:23:02;;;;;;;;;;;;;;;;;;5036712;28;19909;-73
2022/06/17 05:25:28;;;;;;;;;;;;;;;;;;5035361;28;20004;-73
2022/06/17 05:27:54;;;;;;;;;;;;;;;;;;5035326;28;19978;-73
2022/06/17 05:30:20;;;;;;;;;;;;;;;;;;5037149;28;19909;-73
2022/06/17 05:32:46;;;;;;;;;;;;;;;;;;5036562;28;19916;-74
2022/06/17 05:35:12;;;;;;;;;;;;;;;;;;5036789;28;19959;-74
2022/06/17 05:37:37;;;;;;;;;;;;;;;;;;5036653;28;19909;-76
2022/06/17 05:40:03;;;;;;;;;;;;;;;;;;5036412;28;19916;-74
2022/06/17 05:42:29;;;;;;;;;;;;;;;;;;5035840;28;20332;-72
2022/06/17 05:44:55;;;;;;;;;;;;;;;;;;5036472;28;20357;-75
2022/06/17 05:47:21;;;;;;;;;;;;;;;;;;5036234;28;19909;-74
2022/06/17 05:49:47;;;;;;;;;;;;;;;;;;5034923;28;20413;-72
2022/06/17 05:52:13;;;;;;;;;;;;;;;;;;5036178;28;19909;-73
2022/06/17 05:54:39;;;;;;;;;;;;;;;;;;5036113;28;19909;-73
2022/06/17 05:57:04;;;;;;;;;;;;;;;;;;5036061;28;19916;-75
2022/06/17 05:59:30;;;;;;;;;;;;;;;;;;5036333;28;19913;-72
2022/06/17 06:01:56;;;;;;;;;;;;;;;;;;5036017;28;20268;-72
2022/06/17 06:04:22;;;;;;;;;;;;;;;;;;5036057;28;19909;-74
2022/06/17 06:06:48;;;;;;;;;;;;;;;;;;5035851;28;19963;-72
2022/06/17 06:09:14;;;;;;;;;;;;;;;;;;5035850;28;19913;-72
2022/06/17 06:11:40;;;;;;;;;;;;;;;;;;5036380;28;20015;-75
2022/06/17 06:14:06;;;;;;;;;;;;;;;;;;5035693;28;20048;-73
2022/06/17 06:16:32;;;;;;;;;;;;;;;;;;5035992;28;19909;-76
2022/06/17 06:18:58;;;;;;;;;;;;;;;;;;5035967;28;20007;-75
2022/06/17 06:21:23;;;;;;;;;;;;;;;;;;5035917;28;20001;-73
2022/06/17 06:23:49;;;;;;;;;;;;;;;;;;5035585;28;19998;-74
2022/06/17 06:26:15;;;;;;;;;;;;;;;;;;5035852;28;20011;-74
2022/06/17 06:28:41;;;;;;;;;;;;;;;;;;5035586;28;19909;-75
2022/06/17 06:31:07;;;;;;;;;;;;;;;;;;5035725;28;19913;-75
2022/06/17 06:33:33;;;;;;;;;;;;;;;;;;5035677;28;20377;-74
2022/06/17 06:35:59;;;;;;;;;;;;;;;;;;5035509;28;20011;-74
2022/06/17 06:38:25;;;;;;;;;;;;;;;;;;5036812;28;19975;-73
2022/06/17 06:40:51;;;;;;;;;;;;;;;;;;5035988;28;20308;-73
2022/06/17 06:43:17;;;;;;;;;;;;;;;;;;5035287;28;19916;-75
2022/06/17 06:45:43;;;;;;;;;;;;;;;;;;5035138;28;20007;-74
2022/06/17 06:48:09;;;;;;;;;;;;;;;;;;5033875;28;19916;-75
2022/06/17 06:50:34;;;;;;;;;;;;;;;;;;5035606;28;19963;-73
2022/06/17 06:53:00;;;;;;;;;;;;;;;;;;5035016;28;19913;-76
2022/06/17 06:55:26;;;;;;;;;;;;;;;;;;5035184;28;20337;-76
2022/06/17 06:57:52;;;;;;;;;;;;;;;;;;5035231;28;20361;-76
2022/06/17 07:00:18;;;;;;;;;;;;;;;;;;5035508;28;19967;-73
2022/06/17 07:02:44;;;;;;;;;;;;;;;;;;5034868;28;19913;-77
2022/06/17 07:05:10;;;;;;;;;;;;;;;;;;5034710;28;20014;-75
2022/06/17 07:07:36;;;;;;;;;;;;;;;;;;5034735;28;19909;-75
2022/06/17 07:10:02;;;;;;;;;;;;;;;;;;5035292;28;20246;-74
2022/06/17 07:12:28;;;;;;;;;;;;;;;;;;5033363;28;19916;-76
2022/06/17 07:14:54;;;;;;;;;;;;;;;;;;5033352;28;19921;-74
2022/06/17 07:17:20;;;;;;;;;;;;;;;;;;5034843;28;19916;-76
2022/06/17 07:19:45;;;;;;;;;;;;;;;;;;5034540;28;19909;-76
2022/06/17 07:22:11;;;;;;;;;;;;;;;;;;5033221;28;20273;-74
2022/06/17 07:24:37;;;;;;;;;;;;;;;;;;5034232;28;19959;-77
2022/06/17 07:27:03;;;;;;;;;;;;;;;;;;5034308;28;19917;-76
2022/06/17 07:29:29;;;;;;;;;;;;;;;;;;5034886;28;20317;-77
2022/06/17 07:31:55;;;;;;;;;;;;;;;;;;5034323;28;19918;-76
2022/06/17 07:34:22;;;;;;;;;;;;;;;;;;5033006;28;19910;-75
2022/06/17 07:42:17;;;;;;;;;;;;;;;;;;5033953;28;20352;-77
2022/06/17 07:44:43;;;;;;;;;;;;;;;;;;5034740;28;19909;-76
2022/06/17 07:47:09;;;;;;;;;;;;;;;;;;5034278;28;19913;-75
2022/06/17 07:49:37;;;;;;;;;;;;;;;;;;5034339;28;20384;-76
2022/06/17 07:52:03;;;;;;;;;;;;;;;;;;5034016;28;19913;-76
2022/06/17 07:54:29;;;;;;;;;;;;;;;;;;5034523;28;20008;-76
2022/06/17 07:56:55;;;;;;;;;;;;;;;;;;5034186;28;19909;-74
2022/06/17 07:59:21;;;;;;;;;;;;;;;;;;5034424;28;19909;-76
2022/06/17 08:01:47;;;;;;;;;;;;;;;;;;5033853;28;19909;-74
2022/06/17 08:04:13;;;;;;;;;;;;;;;;;;5033806;28;20358;-76
2022/06/17 08:06:39;;;;;;;;;;;;;;;;;;5032440;28;20008;-78
2022/06/17 08:09:05;;;;;;;;;;;;;;;;;;5034048;28;19916;-76
2022/06/17 08:11:31;;;;;;;;;;;;;;;;;;5032484;28;20262;-78
2022/06/17 08:13:57;;;;;;;;;;;;;;;;;;5033692;28;20004;-75
2022/06/17 08:16:23;;;;;;;;;;;;;;;;;;5032203;28;19999;-76
2022/06/17 08:18:49;;;;;;;;;;;;;;;;;;5032437;28;20337;-77
2022/06/17 08:21:15;;;;;;;;;;;;;;;;;;5033665;28;19916;-76
2022/06/17 08:23:41;;;;;;;;;;;;;;;;;;5034187;28;19909;-75
2022/06/17 08:26:07;;;;;;;;;;;;;;;;;;5033423;28;19913;-76
2022/06/17 08:28:33;;;;;;;;;;;;;;;;;;5033857;28;19964;-77
2022/06/17 08:30:59;;;;;;;;;;;;;;;;;;5033834;28;20285;-77
2022/06/17 08:33:31;;;;;;;;;;;;;;;;;;5034068;28;19916;-76
2022/06/17 08:35:58;;;;;;;;;;;;;;;;;;5033818;28;19932;-75
2022/06/17 08:38:24;;;;;;;;;;;;;;;;;;5038050;28;20007;-77
2022/06/17 08:40:50;;;;;;;;;;;;;;;;;;5037281;28;20361;-77
2022/06/17 08:43:16;;;;;;;;;;;;;;;;;;5036235;28;19909;-76
2022/06/17 08:45:41;;;;;;;;;;;;;;;;;;5037878;28;19913;-76
2022/06/17 08:48:08;;;;;;;;;;;;;;;;;;5037369;28;19921;-78
2022/06/17 08:50:33;;;;;;;;;;;;;;;;;;5036121;28;19913;-76
2022/06/17 08:52:59;;;;;;;;;;;;;;;;;;5037846;28;20288;-76
2022/06/17 08:55:25;;;;;;;;;;;;;;;;;;5036906;28;20320;-76
2022/06/17 08:57:51;;;;;;;;;;;;;;;;;;5036639;28;19909;-75
2022/06/17 09:00:18;;;;;;;;;;;;;;;;;;5034535;28;19909;-76
2022/06/17 09:02:44;;;;;;;;;;;;;;;;;;5036449;28;19909;-76
2022/06/17 09:05:10;;;;;;;;;;;;;;;;;;5036772;28;19909;-76
2022/06/17 09:07:36;;;;;;;;;;;;;;;;;;5036784;28;19959;-75
2022/06/17 09:10:02;;;;;;;;;;;;;;;;;;5036864;28;19909;-75
2022/06/17 09:12:28;;;;;;;;;;;;;;;;;;5036984;28;19910;-74
2022/06/17 09:14:54;;;;;;;;;;;;;;;;;;5037144;28;19909;-75
2022/06/17 09:17:19;;;;;;;;;;;;;;;;;;5036785;28;19932;-75
2022/06/17 09:19:45;;;;;;;;;;;;;;;;;;5037035;28;19909;-76
2022/06/17 09:22:11;;;;;;;;;;;;;;;;;;5035499;28;19959;-74
2022/06/17 09:24:37;;;;;;;;;;;;;;;;;;5036999;28;19988;-75
2022/06/17 09:27:04;;;;;;;;;;;;;;;;;;5035315;28;19913;-74
2022/06/17 09:29:29;;;;;;;;;;;;;;;;;;5036625;28;19909;-75
2022/06/17 09:31:55;;;;;;;;;;;;;;;;;;5036539;28;20431;-74
2022/06/17 09:34:21;;;;;;;;;;;;;;;;;;5036509;28;19916;-74
2022/06/17 09:36:47;;;;;;;;;;;;;;;;;;5035148;28;19909;-75
2022/06/17 09:39:13;;;;;;;;;;;;;;;;;;5036393;28;20397;-74
2022/06/17 09:41:39;;;;;;;;;;;;;;;;;;5036280;28;19922;-73
2022/06/17 09:44:05;;;;;;;;;;;;;;;;;;5036638;28;20056;-74
2022/06/17 09:46:31;;;;;;;;;;;;;;;;;;5036160;28;20341;-74
2022/06/17 09:48:57;;;;;;;;;;;;;;;;;;5035863;28;19909;-74
2022/06/17 09:51:23;;;;;;;;;;;;;;;;;;5036479;28;19916;-74
2022/06/17 09:53:49;;;;;;;;;;;;;;;;;;5036168;28;19948;-74
2022/06/17 09:56:15;;;;;;;;;;;;;;;;;;5036109;28;20288;-74
2022/06/17 09:58:41;;;;;;;;;;;;;;;;;;5034807;28;19909;-73
2022/06/17 10:01:06;;;;;;;;;;;;;;;;;;5036283;28;19992;-73
2022/06/17 10:03:32;;;;;;;;;;;;;;;;;;5035981;28;19948;-74
2022/06/17 10:05:59;;;;;;;;;;;;;;;;;;5035870;28;20353;-73
2022/06/17 10:08:24;;;;;;;;;;;;;;;;;;5035933;28;19917;-75
2022/06/17 10:10:50;;;;;;;;;;;;;;;;;;5036129;28;19909;-74
2022/06/17 10:13:16;;;;;;;;;;;;;;;;;;5035821;28;20284;-73
2022/06/17 10:18:31;;;;;;;;;;;;;;;;;;5036321;28;20410;-74
2022/06/17 10:18:34;;;;;;;;;;;;;;;;;;5035444;28;20063;-73
2022/06/17 10:21:00;;;;;;;;;;;;;;;;;;5034453;28;19970;-74
2022/06/17 10:23:26;;;;;;;;;;;;;;;;;;5035625;28;20382;-74
2022/06/17 10:25:52;;;;;;;;;;;;;;;;;;5035511;28;19913;-74
2022/06/17 10:28:18;;;;;;;;;;;;;;;;;;5035560;28;20308;-73
2022/06/17 10:30:44;;;;;;;;;;;;;;;;;;5035477;28;19913;-73
2022/06/17 10:33:10;;;;;;;;;;;;;;;;;;5035741;28;19916;-74
2022/06/17 10:35:36;;;;;;;;;;;;;;;;;;5035648;28;20004;-74
2022/06/17 10:38:02;;;;;;;;;;;;;;;;;;5035747;28;19909;-75
2022/06/17 10:40:28;;;;;;;;;;;;;;;;;;5035121;28;19910;-74
2022/06/17 10:42:53;;;;;;;;;;;;;;;;;;5035590;28;19917;-74
2022/06/17 10:45:19;;;;;;;;;;;;;;;;;;5035122;28;19919;-74
2022/06/17 10:47:45;;;;;;;;;;;;;;;;;;5035204;28;20427;-73
2022/06/17 10:50:11;;;;;;;;;;;;;;;;;;5035129;28;19909;-73
2022/06/17 10:52:37;;;;;;;;;;;;;;;;;;5035665;28;20376;-74
2022/06/17 10:55:03;;;;;;;;;;;;;;;;;;5035036;28;19944;-73
2022/06/17 10:57:29;;;;;;;;;;;;;;;;;;5035036;28;19916;-73
2022/06/17 10:59:55;;;;;;;;;;;;;;;;;;5034136;28;20317;-73
2022/06/17 11:02:21;;;;;;;;;;;;;;;;;;5035249;28;20000;-72
2022/06/17 11:04:47;;;;;;;;;;;;;;;;;;5034846;28;19931;-74
2022/06/17 11:07:13;;;;;;;;;;;;;;;;;;5034703;28;19913;-73
2022/06/17 11:09:39;;;;;;;;;;;;;;;;;;5035286;28;20350;-73
2022/06/17 11:12:05;;;;;;;;;;;;;;;;;;5034985;28;20004;-74
2022/06/17 11:14:31;;;;;;;;;;;;;;;;;;5033350;28;20280;-74
2022/06/17 11:16:57;;;;;;;;;;;;;;;;;;5034620;28;20000;-74
2022/06/17 11:19:23;;;;;;;;;;;;;;;;;;5034533;28;19945;-75
2022/06/17 11:21:49;;;;;;;;;;;;;;;;;;5034515;28;20408;-75
2022/06/17 11:24:15;;;;;;;;;;;;;;;;;;5034758;28;19914;-73
2022/06/17 11:26:41;;;;;;;;;;;;;;;;;;5034375;28;20273;-75
2022/06/17 11:29:07;;;;;;;;;;;;;;;;;;5034405;28;19913;-74
2022/06/17 11:31:33;;;;;;;;;;;;;;;;;;5034625;28;19909;-73
2022/06/17 11:33:59;;;;;;;;;;;;;;;;;;5033063;28;19909;-74
2022/06/17 11:36:25;;;;;;;;;;;;;;;;;;5034548;28;19917;-74
2022/06/17 11:38:51;;;;;;;;;;;;;;;;;;5034215;28;20292;-74
2022/06/17 11:41:17;;;;;;;;;;;;;;;;;;5034122;28;19921;-73
2022/06/17 11:43:43;;;;;;;;;;;;;;;;;;5034705;28;19935;-72
2022/06/17 11:46:12;;;;;;;;;;;;;;;;;;5034320;28;19960;-74
2022/06/17 11:48:38;;;;;;;;;;;;;;;;;;5034631;28;19913;-73
2022/06/17 11:51:04;;;;;;;;;;;;;;;;;;5034014;28;19913;-72
2022/06/17 11:53:30;;;;;;;;;;;;;;;;;;5034520;28;19909;-73
2022/06/17 11:55:56;;;;;;;;;;;;;;;;;;5033943;28;19916;-72
2022/06/17 11:58:22;;;;;;;;;;;;;;;;;;5032686;28;19912;-75
2022/06/17 12:00:48;;;;;;;;;;;;;;;;;;5033909;28;20400;-75
2022/06/17 12:03:14;;;;;;;;;;;;;;;;;;5033895;28;19913;-76
2022/06/17 12:05:40;;;;;;;;;;;;;;;;;;5033838;28;20395;-77
2022/06/17 12:08:06;;;;;;;;;;;;;;;;;;5034304;28;19915;-74
2022/06/17 12:10:32;;;;;;;;;;;;;;;;;;5033612;28;19909;-75
2022/06/17 12:12:58;;;;;;;;;;;;;;;;;;5033996;28;19931;-76
2022/06/17 12:15:24;;;;;;;;;;;;;;;;;;5033690;28;19963;-75
2022/06/17 12:17:50;;;;;;;;;;;;;;;;;;5034233;28;19909;-75
2022/06/17 12:20:16;;;;;;;;;;;;;;;;;;5033698;28;19959;-74
2022/06/17 12:22:42;;;;;;;;;;;;;;;;;;5034219;28;20276;-74
2022/06/17 12:25:07;;;;;;;;;;;;;;;;;;5033877;28;19962;-75
2022/06/17 12:27:33;;;;;;;;;;;;;;;;;;5033605;28;19909;-75
2022/06/17 12:29:59;;;;;;;;;;;;;;;;;;5034184;28;19917;-74
2022/06/17 12:32:25;;;;;;;;;;;;;;;;;;5033838;28;20008;-75
2022/06/17 12:34:51;;;;;;;;;;;;;;;;;;5032295;28;19909;-75
2022/06/17 12:37:17;;;;;;;;;;;;;;;;;;5034049;28;19909;-75
2022/06/17 12:39:43;;;;;;;;;;;;;;;;;;5033467;28;19998;-75
2022/06/17 12:42:09;;;;;;;;;;;;;;;;;;5033398;28;20366;-76
2022/06/17 12:44:35;;;;;;;;;;;;;;;;;;5033774;28;19913;-75
2022/06/17 12:47:01;;;;;;;;;;;;;;;;;;5033361;28;19913;-75
2022/06/17 12:54:56;;;;;;;;;;;;;;;;;;5033431;28;19971;-76
2022/06/17 12:57:22;;;;;;;;;;;;;;;;;;5033330;28;19960;-75
2022/06/17 12:59:50;;;;;;;;;;;;;;;;;;5033320;28;19909;-75
2022/06/17 13:02:16;;;;;;;;;;;;;;;;;;5032577;28;19987;-74
2022/06/17 13:04:42;;;;;;;;;;;;;;;;;;5033288;28;19917;-75
2022/06/17 13:07:08;;;;;;;;;;;;;;;;;;5033230;28;20012;-76
2022/06/17 13:09:34;;;;;;;;;;;;;;;;;;5033784;28;20254;-76
2022/06/17 13:12:02;;;;;;;;;;;;;;;;;;5033174;28;19909;-76
2022/06/17 13:14:28;;;;;;;;;;;;;;;;;;5033176;28;19909;-76
2022/06/17 13:16:54;;;;;;;;;;;;;;;;;;5033177;28;19909;-75
2022/06/17 13:19:20;;;;;;;;;;;;;;;;;;5033436;28;19959;-74
2022/06/17 13:21:45;;;;;;;;;;;;;;;;;;5033123;28;20373;-76
2022/06/17 13:24:11;;;;;;;;;;;;;;;;;;5036704;28;19909;-75
2022/06/17 13:26:37;;;;;;;;;;;;;;;;;;5036641;28;19913;-75
2022/06/17 13:29:03;;;;;;;;;;;;;;;;;;5036890;28;19917;-75
2022/06/17 13:31:29;;;;;;;;;;;;;;;;;;5036890;28;19917;-76
2022/06/17 13:33:55;;;;;;;;;;;;;;;;;;5036573;28;19919;-75
2022/06/17 13:36:21;;;;;;;;;;;;;;;;;;5036806;28;19917;-75
2022/06/17 13:38:47;;;;;;;;;;;;;;;;;;5036691;28;20361;-75
2022/06/17 13:41:14;;;;;;;;;;;;;;;;;;5036457;28;19921;-74
2022/06/17 13:43:40;;;;;;;;;;;;;;;;;;5036979;28;19909;-75
2022/06/17 13:46:06;;;;;;;;;;;;;;;;;;5036323;28;19913;-75
2022/06/17 13:48:32;;;;;;;;;;;;;;;;;;5036601;28;19909;-76
2022/06/17 13:50:58;;;;;;;;;;;;;;;;;;5036300;28;20388;-75
2022/06/17 13:53:24;;;;;;;;;;;;;;;;;;5036237;28;19909;-75
2022/06/17 13:55:50;;;;;;;;;;;;;;;;;;5036189;28;20329;-76
2022/06/17 13:58:16;;;;;;;;;;;;;;;;;;5036157;28;20385;-74
2022/06/17 14:00:42;;;;;;;;;;;;;;;;;;5036127;28;19909;-76
2022/06/17 14:03:08;;;;;;;;;;;;;;;;;;5036337;28;20011;-74
2022/06/17 14:05:33;;;;;;;;;;;;;;;;;;5035900;28;19921;-75
2022/06/17 14:07:59;;;;;;;;;;;;;;;;;;5035983;28;20365;-75
2022/06/17 14:10:25;;;;;;;;;;;;;;;;;;5035931;28;19944;-76
2022/06/17 14:12:51;;;;;;;;;;;;;;;;;;5036169;28;19909;-76
2022/06/17 14:15:17;;;;;;;;;;;;;;;;;;5035814;28;20332;-75
2022/06/17 14:17:43;;;;;;;;;;;;;;;;;;5035795;28;19916;-75
2022/06/17 14:20:09;;;;;;;;;;;;;;;;;;5035737;28;19909;-75
2022/06/17 14:22:38;;;;;;;;;;;;;;;;;;5035956;28;20007;-74
2022/06/17 14:25:04;;;;;;;;;;;;;;;;;;5035898;28;19909;-76
2022/06/17 14:27:30;;;;;;;;;;;;;;;;;;5035540;28;19924;-76
2022/06/17 14:29:56;;;;;;;;;;;;;;;;;;5036102;28;20246;-76
2022/06/17 14:32:21;;;;;;;;;;;;;;;;;;5035474;28;19910;-76
2022/06/17 14:34:47;;;;;;;;;;;;;;;;;;5034244;28;19916;-75
2022/06/17 14:37:13;;;;;;;;;;;;;;;;;;5035679;28;19909;-75
2022/06/17 14:39:39;;;;;;;;;;;;;;;;;;5035278;28;20003;-74
2022/06/17 14:42:06;;;;;;;;;;;;;;;;;;5035066;28;19947;-75
2022/06/17 14:44:32;;;;;;;;;;;;;;;;;;5035243;28;19909;-75
2022/06/17 14:46:57;;;;;;;;;;;;;;;;;;5035397;28;19920;-75
2022/06/17 14:49:23;;;;;;;;;;;;;;;;;;5035212;28;20003;-76
2022/06/17 14:51:49;;;;;;;;;;;;;;;;;;5035677;28;19916;-75
2022/06/17 14:54:15;;;;;;;;;;;;;;;;;;5035089;28;19963;-74
2022/06/17 14:56:41;;;;;;;;;;;;;;;;;;5035595;28;20401;-75
2022/06/17 14:59:07;;;;;;;;;;;;;;;;;;5034988;28;19910;-74
2022/06/17 15:01:33;;;;;;;;;;;;;;;;;;5033666;28;19909;-76
2022/06/17 15:03:59;;;;;;;;;;;;;;;;;;5034894;28;19910;-75
2022/06/17 15:06:28;;;;;;;;;;;;;;;;;;5035350;28;20285;-75
2022/06/17 15:08:54;;;;;;;;;;;;;;;;;;5033544;28;19909;-75
2022/06/17 15:11:20;;;;;;;;;;;;;;;;;;5034751;28;20281;-75
2022/06/17 15:16:30;;;;;;;;;;;;;;;;;;5034734;28;19915;-75
2022/06/17 15:18:56;;;;;;;;;;;;;;;;;;5034579;28;19996;-75
2022/06/17 15:21:22;;;;;;;;;;;;;;;;;;5034571;28;19909;-75
2022/06/17 15:23:48;;;;;;;;;;;;;;;;;;5033213;28;19916;-75
2022/06/17 15:26:14;;;;;;;;;;;;;;;;;;5034352;28;19913;-75
2022/06/17 15:28:40;;;;;;;;;;;;;;;;;;5034476;28;19913;-76
2022/06/17 15:31:06;;;;;;;;;;;;;;;;;;5034649;28;19924;-75
2022/06/17 15:33:32;;;;;;;;;;;;;;;;;;5034352;28;20277;-75
2022/06/17 15:35:58;;;;;;;;;;;;;;;;;;5034583;28;19910;-75
2022/06/17 15:38:23;;;;;;;;;;;;;;;;;;5034160;28;19932;-75
2022/06/17 15:40:49;;;;;;;;;;;;;;;;;;5033990;28;19924;-75
2022/06/17 15:43:15;;;;;;;;;;;;;;;;;;5033967;28;20003;-76
2022/06/17 15:45:42;;;;;;;;;;;;;;;;;;5032481;28;19913;-75
2022/06/17 15:48:08;;;;;;;;;;;;;;;;;;5034096;28;19939;-78
2022/06/17 15:50:34;;;;;;;;;;;;;;;;;;5032793;28;19931;-76
2022/06/17 15:53:00;;;;;;;;;;;;;;;;;;5033927;28;19909;-76
2022/06/17 15:55:26;;;;;;;;;;;;;;;;;;5032947;28;20004;-75
2022/06/17 15:57:52;;;;;;;;;;;;;;;;;;5032564;28;19956;-76
2022/06/17 16:00:19;;;;;;;;;;;;;;;;;;5031221;28;20293;-76
2022/06/17 16:02:45;;;;;;;;;;;;;;;;;;5034115;28;19948;-76
2022/06/17 16:05:11;;;;;;;;;;;;;;;;;;5032560;28;19955;-75
2022/06/17 16:07:37;;;;;;;;;;;;;;;;;;5034117;28;19909;-75
2022/06/17 16:10:03;;;;;;;;;;;;;;;;;;5033810;28;19916;-74
2022/06/17 16:12:29;;;;;;;;;;;;;;;;;;5033800;28;19913;-76
2022/06/17 16:14:55;;;;;;;;;;;;;;;;;;5034337;28;20331;-75
2022/06/17 16:17:21;;;;;;;;;;;;;;;;;;5032444;28;19916;-76
2022/06/17 16:19:47;;;;;;;;;;;;;;;;;;5034277;28;20364;-76
2022/06/17 16:22:13;;;;;;;;;;;;;;;;;;5033994;28;20007;-76
2022/06/17 16:24:40;;;;;;;;;;;;;;;;;;5033654;28;20285;-75
2022/06/17 16:27:06;;;;;;;;;;;;;;;;;;5033569;28;19913;-74
2022/06/17 16:29:32;;;;;;;;;;;;;;;;;;5033608;28;19916;-74
2022/06/17 16:31:58;;;;;;;;;;;;;;;;;;5032316;28;20354;-77
2022/06/17 16:34:23;;;;;;;;;;;;;;;;;;5033858;28;19916;-76
2022/06/17 16:36:49;;;;;;;;;;;;;;;;;;5032104;28;20344;-75
2022/06/17 16:39:15;;;;;;;;;;;;;;;;;;5033449;28;19939;-77
2022/06/17 16:44:26;;;;;;;;;;;;;;;;;;5033216;28;19915;-76
2022/06/17 16:46:52;;;;;;;;;;;;;;;;;;5032060;28;20011;-75
2022/06/17 16:49:18;;;;;;;;;;;;;;;;;;5033695;28;20363;-74
2022/06/17 16:51:44;;;;;;;;;;;;;;;;;;5033382;28;19913;-75
2022/06/17 16:54:09;;;;;;;;;;;;;;;;;;5033360;28;19909;-76